Time;durP1;ratioP1;P1;durP2;ratioP2;P2;SDS_P1;SDS_P2;PMS_P1;PMS_P2;Temp;Humidity;BMP_temperature;BMP_pressure;BME280_temperature;BME280_humidity;BME280_pressure;Samples;Min_cycle;Max_cycle;Signal;HPM_P1;HPM_P2
2023/09/07 00:00:20;;;;;;;8.23;4.65;;;;;;;17.86;98.71;101668.97;4967269;28;20497;-67
2023/09/07 00:02:46;;;;;;;6.90;4.22;;;;;;;17.82;98.98;101667.63;4954580;28;20502;-67
2023/09/07 00:05:13;;;;;;;8.52;4.55;;;;;;;17.79;98.93;101666.22;4962234;28;20507;-68
2023/09/07 00:07:38;;;;;;;7.68;4.57;;;;;;;17.76;99.11;101660.50;4948449;28;20497;-68
2023/09/07 00:10:04;;;;;;;12.27;4.05;;;;;;;17.74;99.27;101659.88;4967067;28;20043;-67
2023/09/07 00:12:30;;;;;;;8.40;4.00;;;;;;;17.73;99.25;101664.31;4961506;28;20067;-67
2023/09/07 00:14:57;;;;;;;11.68;4.32;;;;;;;17.71;99.23;101658.44;4961661;28;20524;-67
2023/09/07 00:17:23;;;;;;;6.00;4.30;;;;;;;17.68;99.55;101654.34;4945907;28;20035;-67
2023/09/07 00:19:50;;;;;;;8.48;4.60;;;;;;;17.67;99.54;101662.44;4962816;28;20138;-67
2023/09/07 00:22:16;;;;;;;10.70;5.10;;;;;;;17.67;99.85;101659.81;4957847;28;20096;-67
2023/09/07 00:24:42;;;;;;;8.55;5.57;;;;;;;17.66;99.80;101650.31;4964647;28;20061;-68
2023/09/07 00:27:08;;;;;;;9.60;5.85;;;;;;;17.69;99.84;101655.19;4944208;28;20031;-68
2023/09/07 00:29:37;;;;;;;11.98;5.07;;;;;;;17.70;99.92;101662.84;4959729;28;20043;-68
2023/09/07 00:32:03;;;;;;;6.22;4.22;;;;;;;17.71;100.00;101658.44;4961068;28;20137;-68
2023/09/07 00:34:28;;;;;;;8.98;5.43;;;;;;;17.72;100.00;101657.44;4962656;28;20118;-68
2023/09/07 00:36:53;;;;;;;6.68;5.20;;;;;;;17.72;99.90;101657.44;4959664;28;20059;-67
2023/09/07 00:39:19;;;;;;;8.48;4.93;;;;;;;17.72;99.60;101657.44;4961224;28;20481;-68
2023/09/07 00:41:44;;;;;;;7.82;4.53;;;;;;;17.70;99.38;101654.19;4962101;28;20065;-68
2023/09/07 00:44:10;;;;;;;9.00;5.03;;;;;;;17.67;98.96;101644.88;4966125;28;20081;-68
2023/09/07 00:46:36;;;;;;;8.27;4.80;;;;;;;17.62;99.20;101644.59;4958695;28;20039;-67
2023/09/07 00:49:04;;;;;;;6.43;5.00;;;;;;;17.55;99.33;101638.47;4966877;28;20031;-68
2023/09/07 00:51:30;;;;;;;7.05;4.40;;;;;;;17.51;99.55;101650.31;4963523;28;20096;-68
2023/09/07 00:53:56;;;;;;;9.93;5.20;;;;;;;17.49;99.75;101642.63;4948312;28;20034;-65
2023/09/07 00:56:22;;;;;;;8.15;4.60;;;;;;;17.49;99.37;101653.09;4951279;28;20545;-66
2023/09/07 00:58:48;;;;;;;7.35;4.68;;;;;;;17.47;99.35;101652.47;4965820;28;20030;-66
2023/09/07 01:01:13;;;;;;;8.70;5.32;;;;;;;17.46;99.19;101653.47;4967267;28;20045;-66
2023/09/07 01:03:39;;;;;;;10.85;4.97;;;;;;;17.44;99.12;101646.78;4967620;28;20039;-65
2023/09/07 01:06:16;;;;;;;7.32;4.78;;;;;;;17.40;99.19;101654.19;4965731;28;20039;-66
2023/09/07 01:08:49;;;;;;;9.00;4.85;;;;;;;17.38;99.01;101648.31;4967546;28;20069;-66
2023/09/07 01:11:26;;;;;;;8.32;4.75;;;;;;;17.36;98.96;101647.69;4966078;28;20035;-66
2023/09/07 01:13:53;;;;;;;7.57;4.95;;;;;;;17.30;99.04;101646.59;4949447;28;20034;-66
2023/09/07 01:16:20;;;;;;;10.23;5.25;;;;;;;17.24;99.24;101649.13;4964250;28;20054;-65
2023/09/07 01:18:47;;;;;;;8.30;4.90;;;;;;;17.17;99.26;101643.78;4970199;28;20665;-66
2023/09/07 01:21:14;;;;;;;9.98;5.50;;;;;;;17.09;99.48;101646.50;4957276;28;20046;-66
2023/09/07 01:23:44;;;;;;;7.78;4.72;;;;;;;17.00;99.76;101642.31;4948504;28;20050;-66
2023/09/07 01:26:11;;;;;;;8.13;4.20;;;;;;;16.94;100.00;101638.59;4964312;28;20039;-67
2023/09/07 01:28:37;;;;;;;10.02;4.60;;;;;;;16.92;100.00;101637.97;4967875;28;20023;-68
2023/09/07 01:31:03;;;;;;;7.43;4.28;;;;;;;16.89;100.00;101636.50;4966821;28;21308;-68
2023/09/07 01:33:29;;;;;;;8.30;4.05;;;;;;;16.89;100.00;101633.88;4963010;28;20034;-68
2023/09/07 01:35:55;;;;;;;8.32;4.93;;;;;;;16.90;100.00;101630.28;4964719;28;20046;-68
2023/09/07 01:38:20;;;;;;;6.88;4.45;;;;;;;16.88;100.00;101632.28;4965506;28;20038;-68
2023/09/07 01:40:46;;;;;;;10.38;4.85;;;;;;;16.85;100.00;101632.63;4964508;28;20035;-67
2023/09/07 01:43:12;;;;;;;8.70;4.88;;;;;;;16.80;100.00;101639.34;4965934;28;20093;-68
2023/09/07 01:45:37;;;;;;;6.22;4.85;;;;;;;16.76;100.00;101633.63;4961586;28;20038;-69
2023/09/07 01:48:03;;;;;;;6.78;4.38;;;;;;;16.71;100.00;101633.38;4965395;28;20045;-68
2023/09/07 01:50:31;;;;;;;7.32;4.75;;;;;;;16.67;100.00;101630.28;4961402;28;20050;-68
2023/09/07 01:52:57;;;;;;;8.55;4.35;;;;;;;16.66;100.00;101627.84;4967988;28;20038;-68
2023/09/07 01:55:22;;;;;;;9.45;4.95;;;;;;;16.65;100.00;101628.81;4963787;28;20030;-68
2023/09/07 01:57:48;;;;;;;10.57;4.65;;;;;;;16.64;100.00;101632.44;4964199;28;20039;-68
2023/09/07 02:00:13;;;;;;;5.90;4.63;;;;;;;16.61;100.00;101622.31;4963638;28;20529;-68
2023/09/07 02:02:39;;;;;;;6.45;4.63;;;;;;;16.58;100.00;101620.88;4964632;28;21454;-68
2023/09/07 02:05:04;;;;;;;6.40;4.22;;;;;;;16.55;100.00;101623.81;4962797;28;20409;-68
2023/09/07 02:07:30;;;;;;;6.88;4.53;;;;;;;16.52;100.00;101625.00;4964300;28;20069;-68
2023/09/07 02:09:55;;;;;;;7.07;4.68;;;;;;;16.51;100.00;101623.38;4967420;28;21256;-68
2023/09/07 02:12:21;;;;;;;7.03;4.10;;;;;;;16.52;100.00;101624.19;4962135;28;20039;-68
2023/09/07 02:14:47;;;;;;;6.85;4.35;;;;;;;16.52;100.00;101622.38;4962313;28;20038;-68
2023/09/07 02:17:17;;;;;;;7.63;4.82;;;;;;;16.53;100.00;101621.38;4963030;28;20035;-68
2023/09/07 02:19:46;;;;;;;7.10;4.45;;;;;;;16.54;100.00;101620.41;4963570;28;20128;-68
2023/09/07 02:22:12;;;;;;;6.95;4.35;;;;;;;16.53;100.00;101625.81;4964267;28;20049;-68
2023/09/07 02:24:37;;;;;;;8.48;5.28;;;;;;;16.47;100.00;101619.47;4960810;28;20038;-68
2023/09/07 02:27:03;;;;;;;9.38;4.55;;;;;;;16.40;100.00;101615.13;4961378;28;20418;-68
2023/09/07 02:29:29;;;;;;;7.43;4.22;;;;;;;16.33;100.00;101612.38;4963615;28;20050;-68
2023/09/07 02:31:54;;;;;;;8.70;4.45;;;;;;;16.27;100.00;101626.97;4964698;28;20035;-68
2023/09/07 02:34:22;;;;;;;7.85;4.85;;;;;;;16.24;100.00;101626.50;4965130;28;20122;-68
2023/09/07 02:36:47;;;;;;;7.10;4.60;;;;;;;16.23;100.00;101625.69;4964709;28;20085;-67
2023/09/07 02:39:13;;;;;;;9.52;4.75;;;;;;;16.23;100.00;101625.69;4960727;28;20070;-68
2023/09/07 02:41:39;;;;;;;11.95;4.85;;;;;;;16.25;100.00;101628.13;4963037;28;20034;-68
2023/09/07 02:44:05;;;;;;;9.88;4.65;;;;;;;16.24;100.00;101626.50;4963379;28;20390;-68
2023/09/07 02:46:30;;;;;;;6.40;4.63;;;;;;;16.21;100.00;101629.47;4963970;28;20030;-68
2023/09/07 02:48:59;;;;;;;7.13;4.88;;;;;;;16.17;100.00;101633.41;4964771;28;20916;-68
2023/09/07 02:51:26;;;;;;;10.57;5.07;;;;;;;16.11;100.00;101629.69;4965447;28;20054;-68
2023/09/07 02:53:53;;;;;;;6.10;4.28;;;;;;;16.07;100.00;101629.22;4959992;28;20038;-68
2023/09/07 02:56:19;;;;;;;10.65;4.75;;;;;;;16.05;100.00;101622.50;4961409;28;20085;-68
2023/09/07 02:58:45;;;;;;;8.18;4.53;;;;;;;16.00;100.00;101630.09;4965793;28;20030;-68
2023/09/07 03:01:13;;;;;;;7.68;4.60;;;;;;;15.94;100.00;101621.94;4962445;28;20047;-68
2023/09/07 03:03:41;;;;;;;7.43;4.13;;;;;;;15.89;100.00;101626.84;4968319;28;20121;-68
2023/09/07 03:06:10;;;;;;;8.88;4.72;;;;;;;15.84;100.00;101620.50;4963101;28;20050;-68
2023/09/07 03:08:39;;;;;;;8.25;4.53;;;;;;;15.82;100.00;101617.25;4966482;28;20031;-68
2023/09/07 03:11:05;;;;;;;8.70;4.95;;;;;;;15.78;100.00;101616.75;4962160;28;20035;-68
2023/09/07 03:13:31;;;;;;;6.78;5.07;;;;;;;15.76;100.00;101614.34;4963920;28;20030;-68
2023/09/07 03:15:58;;;;;;;8.27;4.47;;;;;;;15.75;100.00;101610.09;4960904;28;20075;-67
2023/09/07 03:18:23;;;;;;;7.20;4.60;;;;;;;15.75;100.00;101612.69;4965551;28;20031;-68
2023/09/07 03:20:50;;;;;;;7.72;4.40;;;;;;;15.74;100.00;101612.88;4963150;28;20054;-68
2023/09/07 03:23:15;;;;;;;9.68;4.97;;;;;;;15.72;100.00;101613.00;4963337;28;20058;-68
2023/09/07 03:25:41;;;;;;;15.05;5.32;;;;;;;15.68;100.00;101613.53;4964097;28;20068;-68
2023/09/07 03:28:06;;;;;;;8.25;4.57;;;;;;;15.65;100.00;101613.84;4958930;28;20027;-66
2023/09/07 03:30:34;;;;;;;9.73;4.93;;;;;;;15.62;100.00;101617.63;4962116;28;20453;-66
2023/09/07 03:33:00;;;;;;;12.68;5.25;;;;;;;15.61;100.00;101620.41;4967225;28;20039;-66
2023/09/07 03:35:26;;;;;;;7.07;4.65;;;;;;;15.58;100.00;101619.75;4930346;28;20166;-65
2023/09/07 03:37:51;;;;;;;9.00;4.63;;;;;;;15.60;100.00;101619.59;4963272;28;20093;-66
2023/09/07 03:40:17;;;;;;;10.48;4.40;;;;;;;15.59;100.00;101615.34;4933020;28;20128;-66
2023/09/07 03:42:45;;;;;;;10.90;4.88;;;;;;;15.59;100.00;101615.34;4945781;28;20042;-66
2023/09/07 03:45:12;;;;;;;6.75;4.93;;;;;;;15.56;100.00;101619.13;4964295;28;20038;-66
2023/09/07 03:47:38;;;;;;;9.48;4.75;;;;;;;15.54;100.00;101620.28;4962279;28;20062;-65
2023/09/07 03:50:04;;;;;;;9.48;5.10;;;;;;;15.52;100.00;101630.06;4963267;28;20034;-67
2023/09/07 03:52:31;;;;;;;8.95;4.90;;;;;;;15.50;100.00;101624.19;4947590;28;20035;-68
2023/09/07 03:54:59;;;;;;;8.88;4.93;;;;;;;15.48;100.00;101628.78;4931615;28;20028;-67
2023/09/07 03:57:25;;;;;;;8.63;4.47;;;;;;;15.46;100.00;101628.94;4959734;28;20038;-67
2023/09/07 03:59:51;;;;;;;10.00;5.35;;;;;;;15.47;100.00;101629.78;4962501;28;20432;-68
2023/09/07 04:02:19;;;;;;;10.10;4.95;;;;;;;15.45;100.00;101629.13;4946514;28;20050;-68
2023/09/07 04:04:55;;;;;;;10.10;5.20;;;;;;;15.41;100.00;101622.59;4964595;28;20129;-67
2023/09/07 04:07:21;;;;;;;10.15;5.47;;;;;;;15.36;100.00;101623.91;4950360;28;20701;-68
2023/09/07 04:09:47;;;;;;;8.57;5.15;;;;;;;15.28;100.00;101621.31;4963003;28;20035;-67
2023/09/07 04:12:13;;;;;;;6.63;4.55;;;;;;;15.24;100.00;101624.41;4959965;28;20034;-67
2023/09/07 04:14:38;;;;;;;10.32;4.70;;;;;;;15.17;100.00;101622.47;4960633;28;20034;-68
2023/09/07 04:17:04;;;;;;;13.07;6.00;;;;;;;15.14;100.00;101622.84;4964298;28;20393;-67
2023/09/07 04:19:30;;;;;;;8.85;4.88;;;;;;;15.10;100.00;101628.53;4961243;28;20066;-67
2023/09/07 04:21:57;;;;;;;8.70;4.88;;;;;;;15.05;100.00;101630.81;4946969;28;20043;-67
2023/09/07 04:24:23;;;;;;;9.10;4.78;;;;;;;15.02;100.00;101620.72;4962464;28;20494;-67
2023/09/07 04:26:49;;;;;;;8.55;4.75;;;;;;;14.98;100.00;101625.47;4966009;28;20065;-67
2023/09/07 04:29:15;;;;;;;9.10;4.75;;;;;;;14.97;100.00;101629.03;4962492;28;20045;-67
2023/09/07 04:31:41;;;;;;;8.02;4.38;;;;;;;14.96;100.00;101622.19;4966250;28;20046;-67
2023/09/07 04:34:07;;;;;;;6.60;4.57;;;;;;;14.95;100.00;101623.97;4958196;28;20375;-67
2023/09/07 04:36:33;;;;;;;8.95;4.80;;;;;;;14.94;100.00;101624.16;4952813;28;20117;-67
2023/09/07 04:38:59;;;;;;;9.20;5.20;;;;;;;14.93;100.00;101620.72;4969438;28;20478;-67
2023/09/07 04:41:25;;;;;;;12.55;5.25;;;;;;;14.93;100.00;101628.53;4965663;28;20027;-67
2023/09/07 04:43:50;;;;;;;7.95;5.10;;;;;;;14.90;100.00;101623.66;4966044;28;20035;-67
2023/09/07 04:46:16;;;;;;;12.30;5.63;;;;;;;14.87;100.00;101628.41;4962353;28;20053;-67
2023/09/07 04:48:43;;;;;;;8.63;4.72;;;;;;;14.83;100.00;101633.13;4966051;28;20460;-67
2023/09/07 04:51:09;;;;;;;11.27;5.30;;;;;;;14.80;100.00;101630.84;4962738;28;20058;-67
2023/09/07 04:53:37;;;;;;;8.25;4.88;;;;;;;14.75;100.00;101638.38;4964715;28;20191;-67
2023/09/07 04:56:04;;;;;;;6.93;5.03;;;;;;;14.68;100.00;101637.38;4967302;28;20051;-67
2023/09/07 04:58:30;;;;;;;10.32;4.60;;;;;;;14.67;100.00;101639.16;4949135;28;20035;-67
2023/09/07 05:01:04;;;;;;;6.97;4.45;;;;;;;14.66;100.00;101637.53;4957904;28;20054;-68
2023/09/07 05:03:29;;;;;;;7.10;4.38;;;;;;;14.65;100.00;101643.72;4962630;28;20042;-67
2023/09/07 05:05:56;;;;;;;9.55;5.50;;;;;;;14.66;100.00;101641.94;4948441;28;20038;-67
2023/09/07 05:08:24;;;;;;;11.77;5.32;;;;;;;14.66;100.00;101641.94;4966109;28;20130;-67
2023/09/07 05:10:55;;;;;;;9.48;4.93;;;;;;;14.64;100.00;101642.09;4963615;28;20045;-67
2023/09/07 05:13:20;;;;;;;10.98;5.30;;;;;;;14.60;100.00;101641.63;4960524;28;20385;-67
2023/09/07 05:15:50;;;;;;;7.53;5.28;;;;;;;14.58;100.00;101645.38;4965340;28;20035;-68
2023/09/07 05:18:17;;;;;;;10.50;5.63;;;;;;;14.54;100.00;101644.84;4962867;28;20026;-67
2023/09/07 05:20:48;;;;;;;7.80;4.90;;;;;;;14.52;100.00;101645.97;4967152;28;20035;-67
2023/09/07 05:23:19;;;;;;;14.35;5.45;;;;;;;14.50;100.00;101648.72;4963761;28;20066;-67
2023/09/07 05:25:50;;;;;;;7.45;4.60;;;;;;;14.46;100.00;101647.44;4955375;28;20707;-67
2023/09/07 05:28:16;;;;;;;8.10;4.80;;;;;;;14.46;100.00;101644.81;4962813;28;20737;-67
2023/09/07 05:30:42;;;;;;;7.30;5.10;;;;;;;14.48;100.00;101652.50;4964046;28;20035;-68
2023/09/07 05:33:13;;;;;;;10.07;4.70;;;;;;;14.48;100.00;101655.91;4961858;28;20043;-67
2023/09/07 05:35:39;;;;;;;12.18;5.10;;;;;;;14.50;100.00;101648.72;4963799;28;20114;-67
2023/09/07 05:38:05;;;;;;;10.45;5.20;;;;;;;14.51;100.00;101654.78;4960688;28;20417;-67
2023/09/07 05:40:36;;;;;;;9.35;5.28;;;;;;;14.54;100.00;101654.44;4961173;28;20041;-67
2023/09/07 05:43:03;;;;;;;9.93;5.00;;;;;;;14.55;100.00;101654.28;4965519;28;20038;-67
2023/09/07 05:45:41;;;;;;;8.00;4.20;;;;;;;14.58;100.00;101659.22;4964752;28;20030;-67
2023/09/07 05:48:08;;;;;;;7.47;5.03;;;;;;;14.59;100.00;101663.47;4962435;28;20042;-67
2023/09/07 05:50:36;;;;;;;5.63;3.97;;;;;;;14.62;100.00;101669.31;4948269;28;20035;-68
2023/09/07 05:53:02;;;;;;;7.35;4.32;;;;;;;14.62;100.00;101667.56;4965680;28;20039;-68
2023/09/07 05:55:27;;;;;;;9.88;4.57;;;;;;;14.63;100.00;101663.94;4963388;28;20413;-68
2023/09/07 05:57:57;;;;;;;6.38;4.78;;;;;;;14.65;100.00;101656.78;4963624;28;20035;-67
2023/09/07 06:00:24;;;;;;;6.05;4.55;;;;;;;14.69;100.00;101659.88;4962904;28;20507;-67
2023/09/07 06:02:50;;;;;;;11.52;5.03;;;;;;;14.72;100.00;101665.59;4964152;28;20046;-67
2023/09/07 06:05:16;;;;;;;7.72;5.20;;;;;;;14.76;100.00;101664.28;4967226;28;20081;-67
2023/09/07 06:07:43;;;;;;;8.82;5.93;;;;;;;14.82;100.00;101675.88;4964487;28;20035;-67
2023/09/07 06:10:10;;;;;;;7.60;5.05;;;;;;;14.87;100.00;101676.22;4959830;28;20030;-67
2023/09/07 06:12:35;;;;;;;11.48;6.03;;;;;;;14.92;100.00;101686.19;4964251;28;20379;-67
2023/09/07 06:15:02;;;;;;;9.32;6.18;;;;;;;14.95;100.00;101678.81;4964261;28;20037;-67
2023/09/07 06:17:29;;;;;;;11.20;5.70;;;;;;;14.99;100.00;101684.53;4965036;28;20062;-67
2023/09/07 06:19:55;;;;;;;10.77;7.13;;;;;;;15.09;100.00;101684.38;4962340;28;20485;-67
2023/09/07 06:22:20;;;;;;;10.43;6.05;;;;;;;15.14;100.00;101682.06;4962915;28;20127;-67
2023/09/07 06:24:46;;;;;;;15.05;8.13;;;;;;;15.22;100.00;101684.69;4944509;28;20031;-68
2023/09/07 06:27:12;;;;;;;12.85;6.18;;;;;;;15.30;100.00;101682.06;4962549;28;20043;-67
2023/09/07 06:29:37;;;;;;;14.70;8.13;;;;;;;15.37;100.00;101679.63;4965064;28;20035;-67
2023/09/07 06:32:03;;;;;;;11.05;6.85;;;;;;;15.48;100.00;101676.66;4965046;28;20106;-67
2023/09/07 06:34:29;;;;;;;11.93;6.80;;;;;;;15.76;100.00;101678.88;4964469;28;20150;-67
2023/09/07 06:36:54;;;;;;;10.57;6.70;;;;;;;16.03;100.00;101685.50;4966435;28;20035;-68
2023/09/07 06:39:20;;;;;;;13.95;6.47;;;;;;;16.19;100.00;101681.97;4963981;28;20027;-68
2023/09/07 06:41:47;;;;;;;13.70;6.20;;;;;;;16.37;100.00;101681.72;4966318;28;20046;-67
2023/09/07 06:44:13;;;;;;;10.45;7.10;;;;;;;16.64;100.00;101683.00;4961267;28;20030;-67
2023/09/07 06:46:40;;;;;;;12.73;6.30;;;;;;;16.92;100.00;101682.50;4960608;28;20043;-68
2023/09/07 06:49:05;;;;;;;11.70;6.38;;;;;;;17.29;100.00;101683.47;4966355;28;20701;-68
2023/09/07 06:51:31;;;;;;;15.43;6.45;;;;;;;17.77;100.00;101688.38;4965332;28;20509;-68
2023/09/07 06:53:57;;;;;;;12.00;6.20;;;;;;;18.45;98.54;101691.63;4964659;28;20208;-67
2023/09/07 06:56:23;;;;;;;8.30;5.63;;;;;;;19.39;94.84;101690.59;4963115;28;20038;-67
2023/09/07 06:58:49;;;;;;;11.35;6.55;;;;;;;20.27;86.85;101695.25;4965587;28;20031;-68
2023/09/07 07:01:15;;;;;;;8.18;5.03;;;;;;;21.09;84.61;101691.50;4957974;28;20109;-68
2023/09/07 07:03:41;;;;;;;10.02;5.05;;;;;;;21.72;78.24;101691.00;4966791;28;20150;-67
2023/09/07 07:06:07;;;;;;;18.52;5.55;;;;;;;22.14;75.83;101691.41;4968477;28;20568;-67
2023/09/07 07:08:32;;;;;;;9.23;5.65;;;;;;;22.70;73.94;101687.22;4960055;28;20401;-68
2023/09/07 07:10:57;;;;;;;10.82;5.57;;;;;;;22.97;69.44;101694.94;4947730;28;20063;-68
2023/09/07 07:13:23;;;;;;;10.07;5.35;;;;;;;23.18;69.07;101692.94;4965584;28;20097;-68
2023/09/07 07:15:48;;;;;;;8.63;5.05;;;;;;;23.59;68.32;101696.81;4963314;28;20038;-68
2023/09/07 07:18:14;;;;;;;7.90;4.97;;;;;;;23.92;67.02;101695.59;4946691;28;20034;-67
2023/09/07 07:20:41;;;;;;;6.57;4.78;;;;;;;24.26;65.00;101696.78;4962707;28;20460;-65
2023/09/07 07:23:07;;;;;;;12.23;5.38;;;;;;;24.26;64.62;101694.13;4962737;28;20038;-65
2023/09/07 07:25:34;;;;;;;9.23;4.18;;;;;;;24.60;62.28;101695.28;4967396;28;20402;-67
2023/09/07 07:28:05;;;;;;;8.50;4.57;;;;;;;24.69;62.16;101693.09;4963495;28;20058;-66
2023/09/07 07:30:36;;;;;;;7.35;4.15;;;;;;;25.12;60.65;101685.84;4962632;28;20530;-65
2023/09/07 07:33:03;;;;;;;10.45;4.60;;;;;;;25.32;61.82;101680.22;4951269;28;20529;-66
2023/09/07 07:35:32;;;;;;;11.32;4.88;;;;;;;25.22;59.87;101684.22;4960995;28;20053;-64
2023/09/07 07:37:58;;;;;;;8.55;4.53;;;;;;;25.33;59.43;101676.50;4932888;28;20031;-66
2023/09/07 07:40:24;;;;;;;8.65;5.07;;;;;;;25.48;58.77;101681.31;4962768;28;20041;-65
2023/09/07 07:42:52;;;;;;;8.32;4.82;;;;;;;25.37;57.49;101683.78;4955695;28;20080;-65
2023/09/07 07:45:22;;;;;;;6.80;4.47;;;;;;;25.10;57.64;101682.63;4956984;28;20039;-65
2023/09/07 07:47:49;;;;;;;11.68;4.93;;;;;;;25.42;56.93;101681.22;4963257;28;20723;-65
2023/09/07 07:50:16;;;;;;;10.82;4.25;;;;;;;25.76;57.30;101684.00;4948446;28;20035;-65
2023/09/07 07:52:43;;;;;;;12.75;5.13;;;;;;;26.11;57.60;101679.63;4963658;28;20046;-66
2023/09/07 07:55:10;;;;;;;13.63;4.95;;;;;;;25.99;57.17;101685.81;4962418;28;20031;-66
2023/09/07 07:57:36;;;;;;;6.13;4.05;;;;;;;26.29;56.02;101683.91;4962845;28;20059;-67
2023/09/07 08:00:04;;;;;;;8.43;4.32;;;;;;;26.56;55.65;101687.56;4960591;28;20031;-67
2023/09/07 08:02:39;;;;;;;7.55;3.80;;;;;;;27.02;55.61;101676.03;4947745;28;20041;-67
2023/09/07 08:05:06;;;;;;;8.10;3.85;;;;;;;27.17;54.10;101684.22;4963803;28;20425;-67
2023/09/07 08:07:32;;;;;;;8.50;4.22;;;;;;;27.48;51.82;101674.78;4960997;28;20647;-67
2023/09/07 08:09:58;;;;;;;7.20;3.72;;;;;;;27.37;50.04;101675.72;4958993;28;20760;-67
2023/09/07 08:12:23;;;;;;;6.50;3.90;;;;;;;27.40;50.70;101679.75;4955612;28;20041;-67
2023/09/07 08:14:49;;;;;;;5.75;3.65;;;;;;;27.43;49.66;101669.41;4959450;28;20035;-67
2023/09/07 08:17:14;;;;;;;7.55;4.53;;;;;;;26.86;49.73;101688.28;4960740;28;20110;-67
2023/09/07 08:19:40;;;;;;;6.47;4.25;;;;;;;26.79;49.36;101672.53;4959136;28;20038;-67
2023/09/07 08:22:06;;;;;;;9.27;3.85;;;;;;;26.23;50.86;101681.16;4962586;28;20034;-67
2023/09/07 08:24:32;;;;;;;7.00;4.50;;;;;;;26.61;51.98;101674.38;4957806;28;20027;-67
2023/09/07 08:27:00;;;;;;;12.32;3.90;;;;;;;27.06;50.44;101664.63;4959988;28;20047;-68
2023/09/07 08:29:32;;;;;;;7.82;4.28;;;;;;;27.02;49.62;101657.41;4945343;28;20555;-67
2023/09/07 08:31:59;;;;;;;10.77;4.10;;;;;;;26.98;49.27;101665.06;4962905;28;20042;-68
2023/09/07 08:34:25;;;;;;;5.43;3.92;;;;;;;27.11;48.93;101661.25;4963709;28;20048;-67
2023/09/07 08:36:52;;;;;;;10.32;4.13;;;;;;;27.54;48.98;101670.34;4961335;28;20760;-67
2023/09/07 08:39:20;;;;;;;15.25;4.30;;;;;;;27.25;48.70;101662.50;4962827;28;20038;-67
2023/09/07 08:41:46;;;;;;;11.25;3.90;;;;;;;27.27;49.78;101657.75;4963207;28;20034;-67
2023/09/07 08:44:17;;;;;;;7.25;3.85;;;;;;;27.78;48.82;101657.50;4963934;28;20389;-67
2023/09/07 08:46:43;;;;;;;7.68;4.65;;;;;;;27.54;48.28;101657.81;4960363;28;20035;-68
2023/09/07 08:49:11;;;;;;;7.63;3.67;;;;;;;27.49;48.35;101652.44;4963299;28;20106;-68
2023/09/07 08:51:37;;;;;;;5.10;3.63;;;;;;;27.52;48.66;101656.44;4960065;28;20522;-67
2023/09/07 08:54:04;;;;;;;8.95;3.80;;;;;;;27.58;49.09;101650.13;4960795;28;20050;-68
2023/09/07 08:56:30;;;;;;;7.72;4.05;;;;;;;27.98;48.32;101646.28;4962872;28;20047;-68
2023/09/07 08:58:56;;;;;;;10.48;3.85;;;;;;;27.73;47.82;101652.97;4963652;28;20037;-67
2023/09/07 09:01:21;;;;;;;6.03;4.10;;;;;;;27.93;48.33;101654.22;4958170;28;20043;-67
2023/09/07 09:03:48;;;;;;;11.95;4.70;;;;;;;27.96;47.21;101656.41;4963469;28;20497;-67
2023/09/07 09:06:16;;;;;;;6.38;3.35;;;;;;;28.03;47.63;101648.19;4965871;28;20046;-67
2023/09/07 09:08:45;;;;;;;7.15;3.80;;;;;;;28.35;47.51;101651.69;4964151;28;20087;-68
2023/09/07 09:11:12;;;;;;;8.80;3.67;;;;;;;28.31;47.87;101658.59;4962414;28;20715;-68
2023/09/07 09:13:39;;;;;;;8.30;3.78;;;;;;;28.54;48.22;101653.97;4966390;28;20034;-67
2023/09/07 09:16:05;;;;;;;8.50;3.78;;;;;;;28.58;46.56;101646.28;4963285;28;20035;-68
2023/09/07 09:18:30;;;;;;;7.90;4.05;;;;;;;28.58;46.91;101651.59;4965301;28;20030;-67
2023/09/07 09:20:56;;;;;;;8.02;3.40;;;;;;;28.59;46.54;101651.31;4962459;28;20397;-67
2023/09/07 09:23:21;;;;;;;8.98;4.00;;;;;;;28.83;46.76;101657.09;4966786;28;20053;-69
2023/09/07 09:25:51;;;;;;;7.68;3.60;;;;;;;28.89;46.76;101653.38;4967440;28;20712;-66
2023/09/07 09:28:16;;;;;;;6.32;3.30;;;;;;;28.90;44.90;101649.66;4964224;28;20046;-65
2023/09/07 09:30:45;;;;;;;4.53;3.25;;;;;;;28.62;47.22;101648.16;4961384;28;20037;-66
2023/09/07 09:33:10;;;;;;;6.47;3.83;;;;;;;28.72;47.52;101656.22;4965344;28;20050;-65
2023/09/07 09:35:38;;;;;;;5.55;3.65;;;;;;;28.59;46.24;101648.66;4946805;28;20027;-68
2023/09/07 09:38:04;;;;;;;8.73;3.78;;;;;;;28.41;46.42;101647.19;4968593;28;20041;-67
2023/09/07 09:40:36;;;;;;;7.10;4.03;;;;;;;28.38;46.95;101650.34;4969689;28;20504;-67
2023/09/07 09:43:03;;;;;;;9.07;3.65;;;;;;;28.59;46.62;101651.31;4965435;28;20070;-68
2023/09/07 09:45:29;;;;;;;12.23;3.63;;;;;;;28.32;46.51;101646.03;4965858;28;20045;-67
2023/09/07 09:47:59;;;;;;;12.88;3.80;;;;;;;28.58;47.62;101640.94;4963423;28;20050;-67
2023/09/07 09:50:25;;;;;;;8.85;3.05;;;;;;;28.68;46.10;101639.13;4963393;28;20074;-68
2023/09/07 09:52:53;;;;;;;6.30;3.58;;;;;;;28.75;47.06;101638.91;4966788;28;20034;-68
2023/09/07 09:55:19;;;;;;;7.20;3.10;;;;;;;28.80;47.33;101630.09;4968721;28;20030;-65
2023/09/07 09:57:44;;;;;;;5.13;3.50;;;;;;;29.02;47.11;101636.09;4964757;28;20039;-65
2023/09/07 10:00:19;;;;;;;8.65;4.05;;;;;;;28.97;44.61;101622.75;4963519;28;20098;-65
2023/09/07 10:02:49;;;;;;;18.10;3.67;;;;;;;28.46;45.78;101625.91;4968453;28;20035;-65
2023/09/07 10:05:17;;;;;;;10.07;2.90;;;;;;;28.68;46.36;101617.78;4965984;28;20050;-65
2023/09/07 10:07:45;;;;;;;6.85;3.28;;;;;;;28.76;48.18;101613.03;4965409;28;20031;-68
2023/09/07 10:10:14;;;;;;;14.77;3.65;;;;;;;28.90;46.31;101616.84;4968456;28;20105;-67
2023/09/07 10:12:44;;;;;;;10.43;3.40;;;;;;;28.99;47.00;101607.28;4961287;28;20062;-67
2023/09/07 10:15:26;;;;;;;6.25;3.20;;;;;;;29.03;47.02;101607.56;4968303;28;20046;-67
2023/09/07 10:18:05;;;;;;;5.18;3.33;;;;;;;29.15;45.62;101597.47;4960395;28;21973;-68
2023/09/07 10:21:06;;;;;;;7.32;3.40;;;;;;;28.91;46.05;101600.56;4964276;28;20046;-68
2023/09/07 10:23:45;;;;;;;6.07;3.47;;;;;;;29.16;46.41;101592.94;4923960;29;20043;-67
2023/09/07 10:26:16;;;;;;;9.43;3.47;;;;;;;29.22;47.07;101592.69;4958568;28;20036;-67
2023/09/07 10:28:43;;;;;;;5.18;3.88;;;;;;;29.27;45.44;101599.91;4966127;28;20980;-68
2023/09/07 10:31:19;;;;;;;9.45;3.50;;;;;;;29.31;44.94;101591.13;4948067;28;20057;-67
2023/09/07 10:33:46;;;;;;;7.05;3.53;;;;;;;29.36;45.03;101590.31;4965178;28;20042;-67
2023/09/07 10:36:26;;;;;;;9.40;3.75;;;;;;;29.45;45.70;101588.75;4963559;28;20034;-67
2023/09/07 10:38:55;;;;;;;4.55;2.90;;;;;;;29.42;45.24;101586.63;4963248;28;20037;-67
2023/09/07 10:41:21;;;;;;;7.60;3.30;;;;;;;29.48;44.07;101582.09;4966121;28;20030;-67
2023/09/07 10:43:54;;;;;;;4.45;3.15;;;;;;;29.56;45.41;101578.09;4968366;28;20031;-67
2023/09/07 10:46:22;;;;;;;7.00;3.80;;;;;;;29.50;44.32;101587.97;4964514;28;20042;-67
2023/09/07 10:48:52;;;;;;;5.88;3.28;;;;;;;29.56;43.90;101578.09;4965937;28;20093;-68
2023/09/07 10:51:19;;;;;;;4.95;2.95;;;;;;;29.64;44.90;101575.69;4961323;28;20034;-67
2023/09/07 10:53:44;;;;;;;6.05;3.45;;;;;;;29.61;46.18;101570.06;4963745;28;20046;-67
2023/09/07 10:56:10;;;;;;;4.75;3.35;;;;;;;29.67;45.67;101572.50;4952909;28;20117;-68
2023/09/07 10:58:42;;;;;;;7.75;3.47;;;;;;;29.69;45.34;101567.69;4968281;28;20062;-67
2023/09/07 11:01:09;;;;;;;5.07;3.30;;;;;;;29.93;45.17;101571.72;4966589;28;20097;-68
2023/09/07 11:03:36;;;;;;;9.30;3.42;;;;;;;29.89;44.41;101566.94;4963346;28;20772;-68
2023/09/07 11:06:07;;;;;;;4.28;2.92;;;;;;;29.79;43.08;101571.47;4966300;28;20039;-68
2023/09/07 11:08:33;;;;;;;4.28;3.00;;;;;;;29.77;43.16;101571.72;4966782;28;20035;-68
2023/09/07 11:10:59;;;;;;;5.72;3.30;;;;;;;29.92;44.06;101568.25;4962885;28;20812;-65
2023/09/07 11:13:26;;;;;;;9.52;3.42;;;;;;;29.65;43.60;101558.59;4965666;28;20031;-65
2023/09/07 11:15:57;;;;;;;7.82;3.38;;;;;;;29.53;43.34;101558.03;4963482;28;20049;-65
2023/09/07 11:18:23;;;;;;;8.07;3.63;;;;;;;29.43;43.99;101552.69;4967950;28;20030;-67